KCOD/COD METAR and TAF weather

Enter ICAO airport designator
Station Type Date Time Source
KCOD METAR 2019/08/22 08:56 UTC NOAA

KCOD 220856Z AUTO 23006KT 10SM CLR 17/07 A2995 RMK AO2 SLP089 T01670067 56020


Station Type Date Time Source
KCOD Decoded METAR 2019/08/22 08:56 UTC NOAA

Station name not available
Aug 22, 2019 - 04:56 AM EDT / 2019.08.22 0856 UTC
Wind: from the SW (230 degrees) at 7 MPH (6 KT):0
Visibility: 10 mile(s):0
Sky conditions: clear
Temperature: 62.1 F (16.7 C)
Dew Point: 44.1 F (6.7 C)
Relative Humidity: 51%
Pressure (altimeter): 29.95 in. Hg (1014 hPa)
Pressure tendency: 0.06 inches (2.0 hPa) lower than three hours ago
ob: KCOD 220856Z AUTO 23006KT 10SM CLR 17/07 A2995 RMK AO2 SLP089 T01670067 56020
cycle: 9

Station Type Date Time Source
KCOD TAF 2019/08/22 06:36 UTC NOAA

TAF KCOD 220532Z 2206/2306 VRB05KT P6SM SCT200
FM222000 VRB10G20KT P6SM VCTS SCT100CB BKN150
FM230200 VRB08G15KT P6SM VCSH BKN100
AMD LTD TO CLD VIS AND WIND

Example: see airport list